createdAt,value
2023-04-08T00:00:43.161Z,53.67
2023-04-08T00:01:33.204Z,53.72
2023-04-08T00:02:23.445Z,53.69
2023-04-08T00:03:13.471Z,53.67
2023-04-08T00:04:03.467Z,53.71
2023-04-08T00:04:53.476Z,53.71
2023-04-08T00:05:43.484Z,53.71
2023-04-08T00:06:33.503Z,53.67
2023-04-08T00:07:23.761Z,53.72
2023-04-08T00:08:13.784Z,53.70
2023-04-08T00:09:03.872Z,53.69
2023-04-08T00:09:53.885Z,53.68
2023-04-08T00:10:43.979Z,53.67
2023-04-08T00:11:34.000Z,53.65
2023-04-08T00:12:24.094Z,53.74
2023-04-08T00:13:14.108Z,53.73
2023-04-08T00:14:04.185Z,53.75
2023-04-08T00:14:54.248Z,53.65
2023-04-08T00:15:44.383Z,53.73
2023-04-08T00:16:34.609Z,53.70
2023-04-08T00:17:24.712Z,53.69
2023-04-08T00:18:14.693Z,53.67
2023-04-08T00:19:05.037Z,53.70
2023-04-08T00:19:55.067Z,53.73
2023-04-08T00:20:45.155Z,53.72
2023-04-08T00:21:35.186Z,53.73
2023-04-08T00:22:25.265Z,53.70
2023-04-08T00:23:15.335Z,53.70
2023-04-08T00:24:05.412Z,53.71
2023-04-08T00:24:55.433Z,53.70
2023-04-08T00:25:45.535Z,53.71
2023-04-08T00:26:35.555Z,53.71
2023-04-08T00:27:25.636Z,53.70
2023-04-08T00:28:15.915Z,53.72
2023-04-08T00:29:05.938Z,53.73
2023-04-08T00:29:55.970Z,53.74
2023-04-08T00:30:46.194Z,53.74
2023-04-08T00:31:36.084Z,53.73
2023-04-08T00:32:26.169Z,53.75
2023-04-08T00:33:16.189Z,53.74
2023-04-08T00:34:06.270Z,53.75
2023-04-08T00:34:56.461Z,53.71
2023-04-08T00:35:46.568Z,53.74
2023-04-08T00:36:36.581Z,53.73
2023-04-08T00:37:26.636Z,53.74
2023-04-08T00:38:16.659Z,53.73
2023-04-08T00:39:06.735Z,53.74
2023-04-08T00:39:56.816Z,53.75
2023-04-08T00:40:46.898Z,53.71
2023-04-08T00:41:36.925Z,53.78
2023-04-08T00:42:26.997Z,53.74
2023-04-08T00:43:17.061Z,53.76
2023-04-08T00:44:07.359Z,53.75
2023-04-08T00:44:57.404Z,53.73
2023-04-08T00:45:47.573Z,53.72
2023-04-08T00:46:37.606Z,53.71
2023-04-08T00:47:27.583Z,53.74
2023-04-08T00:48:17.631Z,53.74
2023-04-08T00:49:07.709Z,53.74
2023-04-08T00:49:57.734Z,53.73
2023-04-08T00:50:47.929Z,53.73
2023-04-08T00:51:37.978Z,53.71
2023-04-08T00:52:28.028Z,53.74
2023-04-08T00:53:18.061Z,53.75
2023-04-08T00:54:08.130Z,53.71
2023-04-08T00:54:58.205Z,53.73
2023-04-08T00:55:48.298Z,53.77
2023-04-08T00:56:38.342Z,53.76
2023-04-08T00:57:28.428Z,53.74
2023-04-08T00:58:18.438Z,53.77
2023-04-08T00:59:08.520Z,53.74
2023-04-08T00:59:58.804Z,53.75
2023-04-08T01:00:48.900Z,53.76
2023-04-08T01:01:39.065Z,53.74
2023-04-08T01:02:29.175Z,53.75
2023-04-08T01:03:19.090Z,53.78
2023-04-08T01:04:09.208Z,53.75
2023-04-08T01:04:59.126Z,53.77
2023-04-08T01:05:49.206Z,53.77
2023-04-08T01:06:39.498Z,53.79
2023-04-08T01:07:29.570Z,53.80
2023-04-08T01:08:19.654Z,53.79
2023-04-08T01:09:09.931Z,53.78
2023-04-08T01:10:00.001Z,53.79
2023-04-08T01:10:50.088Z,53.80
2023-04-08T01:11:40.368Z,53.76
2023-04-08T01:12:30.468Z,53.82
2023-04-08T01:13:20.511Z,53.80
2023-04-08T01:14:10.582Z,53.82
2023-04-08T01:15:00.632Z,53.86
2023-04-08T01:15:50.796Z,53.84
2023-04-08T01:16:40.739Z,53.85
2023-04-08T01:17:30.857Z,53.86
2023-04-08T01:18:20.851Z,53.81
2023-04-08T01:19:10.917Z,53.80
2023-04-08T01:20:00.983Z,53.83
2023-04-08T01:20:51.085Z,53.84
2023-04-08T01:21:41.103Z,53.80
2023-04-08T01:22:31.187Z,53.81
2023-04-08T01:23:21.222Z,53.81
2023-04-08T01:24:11.256Z,53.83
2023-04-08T01:25:01.294Z,53.83
2023-04-08T01:25:51.382Z,53.80
2023-04-08T01:26:41.411Z,53.85
2023-04-08T01:27:31.454Z,53.81
2023-04-08T01:28:21.476Z,53.83
2023-04-08T01:29:11.551Z,53.85
2023-04-08T01:30:01.620Z,53.87
2023-04-08T01:30:51.749Z,53.88
2023-04-08T01:31:41.797Z,53.83
2023-04-08T01:32:31.818Z,53.83
2023-04-08T01:33:21.863Z,53.86
2023-04-08T01:34:12.126Z,53.84
2023-04-08T01:35:02.190Z,53.86
2023-04-08T01:35:52.301Z,53.86
2023-04-08T01:36:42.306Z,53.86
2023-04-08T01:37:32.393Z,53.87
2023-04-08T01:38:22.456Z,53.86
2023-04-08T01:39:12.532Z,53.86
2023-04-08T01:40:02.568Z,53.84
2023-04-08T01:40:52.655Z,53.85
2023-04-08T01:41:42.677Z,53.87
2023-04-08T01:42:32.757Z,53.84
2023-04-08T01:43:23.013Z,53.87
2023-04-08T01:44:13.038Z,53.83
2023-04-08T01:45:03.077Z,53.88
2023-04-08T01:45:53.178Z,53.89
2023-04-08T01:46:43.267Z,53.86
2023-04-08T01:47:33.300Z,53.85
2023-04-08T01:48:23.297Z,53.88
2023-04-08T01:49:13.390Z,53.87
2023-04-08T01:50:03.429Z,53.86
2023-04-08T01:50:53.535Z,53.90
2023-04-08T01:51:43.556Z,53.91
2023-04-08T01:52:33.627Z,53.85
2023-04-08T01:53:23.696Z,53.88
2023-04-08T01:54:13.776Z,53.89
2023-04-08T01:55:03.837Z,53.88
2023-04-08T01:55:53.946Z,53.87
2023-04-08T01:56:43.964Z,53.88
2023-04-08T01:57:34.030Z,53.89
2023-04-08T01:58:24.078Z,53.90
2023-04-08T01:59:14.391Z,53.90
2023-04-08T02:00:04.454Z,53.91
2023-04-08T02:00:54.560Z,53.89
2023-04-08T02:01:44.675Z,53.93
2023-04-08T02:02:34.851Z,53.92
2023-04-08T02:03:24.876Z,53.93
2023-04-08T02:04:14.994Z,53.91
2023-04-08T02:05:04.855Z,53.93
2023-04-08T02:05:55.010Z,53.94
2023-04-08T02:06:45.083Z,53.93
2023-04-08T02:07:35.104Z,53.93
2023-04-08T02:08:25.178Z,53.93
2023-04-08T02:09:15.252Z,53.93
2023-04-08T02:10:05.349Z,53.92
2023-04-08T02:10:55.407Z,53.92
2023-04-08T02:11:45.428Z,53.91
2023-04-08T02:12:35.512Z,53.90
2023-04-08T02:13:25.572Z,53.92
2023-04-08T02:14:15.657Z,53.95
2023-04-08T02:15:05.888Z,53.94
2023-04-08T02:15:56.011Z,53.97
2023-04-08T02:16:46.098Z,53.94
2023-04-08T02:17:36.110Z,53.95
2023-04-08T02:18:26.147Z,53.94
2023-04-08T02:19:16.228Z,53.93
2023-04-08T02:20:06.261Z,53.95
2023-04-08T02:20:56.370Z,53.99
2023-04-08T02:21:46.374Z,53.92
2023-04-08T02:22:36.445Z,53.96
2023-04-08T02:23:26.514Z,53.99
2023-04-08T02:24:16.779Z,53.94
2023-04-08T02:25:06.795Z,53.97
2023-04-08T02:25:56.866Z,53.95
2023-04-08T02:26:46.869Z,53.97
2023-04-08T02:27:36.937Z,53.95
2023-04-08T02:28:27.011Z,53.98
2023-04-08T02:29:17.115Z,54.01
2023-04-08T02:30:07.160Z,53.99
2023-04-08T02:30:57.247Z,53.97
2023-04-08T02:31:47.290Z,53.96
2023-04-08T02:32:37.398Z,53.94
2023-04-08T02:33:27.532Z,53.97
2023-04-08T02:34:17.606Z,53.98
2023-04-08T02:35:07.682Z,53.94
2023-04-08T02:35:58.091Z,53.97
2023-04-08T02:36:48.102Z,53.97
2023-04-08T02:37:38.142Z,54.00
2023-04-08T02:38:28.427Z,53.96
2023-04-08T02:39:18.506Z,53.97
2023-04-08T02:40:08.567Z,53.97
2023-04-08T02:40:58.919Z,53.98
2023-04-08T02:41:48.964Z,53.95
2023-04-08T02:42:39.022Z,53.98
2023-04-08T02:43:29.088Z,53.96
2023-04-08T02:44:19.156Z,53.99
2023-04-08T02:45:09.218Z,54.01
2023-04-08T02:45:59.339Z,54.01
2023-04-08T02:46:49.335Z,54.01
2023-04-08T02:47:39.411Z,53.96
2023-04-08T02:48:29.462Z,53.96
2023-04-08T02:49:19.535Z,54.00
2023-04-08T02:50:09.771Z,53.98
2023-04-08T02:50:59.879Z,53.97
2023-04-08T02:51:49.929Z,53.99
2023-04-08T02:52:40.233Z,53.97
2023-04-08T02:53:30.299Z,53.98
2023-04-08T02:54:20.369Z,53.99
2023-04-08T02:55:10.731Z,54.03
2023-04-08T02:56:00.787Z,53.98
2023-04-08T02:56:50.798Z,54.02
2023-04-08T02:57:40.868Z,54.02
2023-04-08T02:58:30.940Z,54.01
2023-04-08T02:59:21.005Z,53.98
2023-04-08T03:00:11.035Z,53.99
2023-04-08T03:01:01.243Z,54.02
2023-04-08T03:01:51.228Z,54.06
2023-04-08T03:02:41.436Z,54.03
2023-04-08T03:03:31.368Z,54.05
2023-04-08T03:04:21.591Z,54.03
2023-04-08T03:05:11.626Z,54.02
2023-04-08T03:06:01.712Z,54.01
2023-04-08T03:06:51.986Z,54.01
2023-04-08T03:07:42.092Z,54.00
2023-04-08T03:08:32.094Z,53.98
2023-04-08T03:09:22.159Z,54.00
2023-04-08T03:10:12.220Z,53.99
2023-04-08T03:11:02.323Z,54.02
2023-04-08T03:11:52.330Z,54.03
2023-04-08T03:12:42.390Z,54.03
2023-04-08T03:13:32.454Z,54.01
2023-04-08T03:14:22.540Z,53.99
2023-04-08T03:15:12.598Z,54.01
2023-04-08T03:16:02.911Z,54.02
2023-04-08T03:16:52.971Z,54.02
2023-04-08T03:17:43.060Z,54.02
2023-04-08T03:18:33.031Z,54.03
2023-04-08T03:19:23.098Z,54.03
2023-04-08T03:20:13.169Z,54.02
2023-04-08T03:21:03.275Z,54.00
2023-04-08T03:21:53.288Z,54.00
2023-04-08T03:22:43.342Z,54.01
2023-04-08T03:23:33.423Z,54.04
2023-04-08T03:24:23.473Z,54.00
2023-04-08T03:25:13.684Z,54.01
2023-04-08T03:26:03.757Z,53.99
2023-04-08T03:26:53.763Z,54.02
2023-04-08T03:27:43.833Z,54.03
2023-04-08T03:28:33.895Z,54.03
2023-04-08T03:29:23.954Z,54.00
2023-04-08T03:30:14.005Z,54.03
2023-04-08T03:31:04.078Z,54.01
2023-04-08T03:31:54.206Z,54.02
2023-04-08T03:32:44.311Z,54.00
2023-04-08T03:33:34.294Z,54.04
2023-04-08T03:34:24.359Z,54.02
2023-04-08T03:35:14.389Z,54.06
2023-04-08T03:36:04.509Z,54.05
2023-04-08T03:36:54.528Z,54.03
2023-04-08T03:37:44.603Z,54.04
2023-04-08T03:38:34.665Z,54.01
2023-04-08T03:39:24.745Z,54.00
2023-04-08T03:40:14.779Z,54.00
2023-04-08T03:41:05.057Z,54.03
2023-04-08T03:41:55.066Z,54.03
2023-04-08T03:42:45.148Z,54.01
2023-04-08T03:43:37.493Z,54.02
2023-04-08T03:44:25.243Z,54.06
2023-04-08T03:45:15.295Z,54.05
2023-04-08T03:46:05.439Z,54.03
2023-04-08T03:46:55.426Z,54.04
2023-04-08T03:47:45.549Z,54.07
2023-04-08T03:48:35.516Z,54.05
2023-04-08T03:49:25.586Z,54.03
2023-04-08T03:50:15.644Z,54.04
2023-04-08T03:51:05.756Z,54.03
2023-04-08T03:51:55.772Z,54.05
2023-04-08T03:52:46.088Z,54.00
2023-04-08T03:53:36.145Z,54.03
2023-04-08T03:54:26.207Z,54.04
2023-04-08T03:55:16.548Z,53.99
2023-04-08T03:56:06.630Z,54.03
2023-04-08T03:56:56.640Z,54.03
2023-04-08T03:57:46.716Z,54.01
2023-04-08T03:58:36.732Z,54.03
2023-04-08T03:59:26.812Z,54.04
2023-04-08T04:00:16.863Z,54.04
2023-04-08T04:01:06.949Z,54.04
2023-04-08T04:01:57.043Z,54.03
2023-04-08T04:02:47.159Z,54.02
2023-04-08T04:03:37.173Z,54.03
2023-04-08T04:04:27.476Z,54.02
2023-04-08T04:05:17.440Z,54.02
2023-04-08T04:06:07.507Z,54.05
2023-04-08T04:06:57.818Z,54.05
2023-04-08T04:07:47.885Z,54.06
2023-04-08T04:08:37.952Z,54.04
2023-04-08T04:09:28.278Z,54.05
2023-04-08T04:10:18.343Z,54.02
2023-04-08T04:11:08.458Z,54.06
2023-04-08T04:11:58.451Z,54.05
2023-04-08T04:12:48.531Z,54.06
2023-04-08T04:13:38.551Z,54.06
2023-04-08T04:14:28.613Z,54.05
2023-04-08T04:15:18.673Z,54.03
2023-04-08T04:16:08.850Z,54.00
2023-04-08T04:16:58.824Z,54.00
2023-04-08T04:17:48.995Z,54.03
2023-04-08T04:18:39.234Z,54.04
2023-04-08T04:19:29.229Z,54.06
2023-04-08T04:20:19.294Z,54.04
2023-04-08T04:21:09.642Z,54.01
2023-04-08T04:21:59.649Z,54.05
2023-04-08T04:22:49.715Z,54.04
2023-04-08T04:23:39.769Z,54.01
2023-04-08T04:24:29.843Z,54.07
2023-04-08T04:25:19.903Z,54.03
2023-04-08T04:26:09.985Z,54.03
2023-04-08T04:27:00.046Z,54.05
2023-04-08T04:27:50.082Z,54.06
2023-04-08T04:28:40.138Z,54.05
2023-04-08T04:29:30.217Z,54.06
2023-04-08T04:30:20.444Z,54.05
2023-04-08T04:31:10.570Z,54.05
2023-04-08T04:32:00.572Z,54.04
2023-04-08T04:32:50.979Z,54.06
2023-04-08T04:33:40.970Z,54.05
2023-04-08T04:34:31.024Z,54.04
2023-04-08T04:35:21.471Z,54.06
2023-04-08T04:36:11.419Z,54.08
2023-04-08T04:37:01.432Z,54.03
2023-04-08T04:37:51.505Z,54.06
2023-04-08T04:38:41.565Z,54.08
2023-04-08T04:39:31.622Z,54.06
2023-04-08T04:40:21.686Z,54.11
2023-04-08T04:41:11.783Z,54.12
2023-04-08T04:42:01.802Z,54.10
2023-04-08T04:42:51.879Z,54.10
2023-04-08T04:43:41.908Z,54.11
2023-04-08T04:44:32.106Z,54.07
2023-04-08T04:45:22.164Z,54.11
2023-04-08T04:46:12.302Z,54.07
2023-04-08T04:47:02.279Z,54.14
2023-04-08T04:47:52.369Z,54.09
2023-04-08T04:48:42.432Z,54.10
2023-04-08T04:49:32.498Z,54.10
2023-04-08T04:50:22.508Z,54.10
2023-04-08T04:51:12.601Z,54.10
2023-04-08T04:52:02.624Z,54.14
2023-04-08T04:52:52.703Z,54.10
2023-04-08T04:53:43.002Z,54.09
2023-04-08T04:54:33.054Z,54.09
2023-04-08T04:55:23.125Z,54.08
2023-04-08T04:56:13.476Z,54.10
2023-04-08T04:57:03.563Z,54.09
2023-04-08T04:57:53.545Z,54.12
2023-04-08T04:58:43.635Z,54.12
2023-04-08T04:59:33.666Z,54.10
2023-04-08T05:00:23.724Z,54.11
2023-04-08T05:01:13.869Z,54.12
2023-04-08T05:02:03.910Z,54.09
2023-04-08T05:02:54.142Z,54.10
2023-04-08T05:03:43.989Z,54.09
2023-04-08T05:04:34.005Z,54.10
2023-04-08T05:05:24.332Z,54.12
2023-04-08T05:06:14.381Z,54.08
2023-04-08T05:07:04.406Z,54.15
2023-04-08T05:07:54.728Z,54.13
2023-04-08T05:08:44.795Z,54.13
2023-04-08T05:09:34.869Z,54.16
2023-04-08T05:10:25.210Z,54.11
2023-04-08T05:11:15.286Z,54.11
2023-04-08T05:12:05.341Z,54.10
2023-04-08T05:12:55.383Z,54.10
2023-04-08T05:13:45.449Z,54.12
2023-04-08T05:14:35.536Z,54.14
2023-04-08T05:15:25.590Z,54.14
2023-04-08T05:16:15.683Z,54.13
2023-04-08T05:17:05.680Z,54.16
2023-04-08T05:17:55.862Z,54.13
2023-04-08T05:18:45.840Z,54.11
2023-04-08T05:19:36.064Z,54.16
2023-04-08T05:20:26.134Z,54.15
2023-04-08T05:21:16.223Z,54.11
2023-04-08T05:22:06.260Z,54.16
2023-04-08T05:22:56.331Z,54.15
2023-04-08T05:23:46.386Z,54.16
2023-04-08T05:24:36.479Z,54.15
2023-04-08T05:25:26.496Z,54.13
2023-04-08T05:26:16.748Z,54.13
2023-04-08T05:27:06.612Z,54.16
2023-04-08T05:27:56.679Z,54.18
2023-04-08T05:28:47.004Z,54.16
2023-04-08T05:29:37.097Z,54.16
2023-04-08T05:30:27.148Z,54.14
2023-04-08T05:31:17.516Z,54.14
2023-04-08T05:32:07.525Z,54.13
2023-04-08T05:33:00.187Z,54.16
2023-04-08T05:33:47.613Z,54.18
2023-04-08T05:34:37.693Z,54.18
2023-04-08T05:35:27.803Z,54.16
2023-04-08T05:36:17.850Z,54.13
2023-04-08T05:37:07.921Z,54.19
2023-04-08T05:37:58.002Z,54.18
2023-04-08T05:38:48.263Z,54.16
2023-04-08T05:39:38.375Z,54.18
2023-04-08T05:40:28.404Z,54.21
2023-04-08T05:41:18.450Z,54.22
2023-04-08T05:42:08.475Z,54.20
2023-04-08T05:42:58.574Z,54.19
2023-04-08T05:43:48.591Z,54.18
2023-04-08T05:44:38.653Z,54.19
2023-04-08T05:45:28.762Z,54.19
2023-04-08T05:46:18.840Z,54.20
2023-04-08T05:47:08.894Z,54.16
2023-04-08T05:47:58.950Z,54.20
2023-04-08T05:48:49.399Z,54.17
2023-04-08T05:49:39.200Z,54.18
2023-04-08T05:50:29.271Z,54.21
2023-04-08T05:51:19.380Z,54.21
2023-04-08T05:52:09.402Z,54.20
2023-04-08T05:52:59.470Z,54.22
2023-04-08T05:53:49.523Z,54.17
2023-04-08T05:54:39.602Z,54.19
2023-04-08T05:55:29.661Z,54.20
2023-04-08T05:56:19.758Z,54.19
2023-04-08T05:57:10.485Z,54.20
2023-04-08T05:58:00.115Z,54.18
2023-04-08T05:58:50.325Z,54.19
2023-04-08T05:59:40.197Z,54.23
2023-04-08T06:00:30.568Z,54.21
2023-04-08T06:01:20.641Z,54.21
2023-04-08T06:02:10.828Z,54.19
2023-04-08T06:03:01.016Z,54.16
2023-04-08T06:03:50.973Z,54.16
2023-04-08T06:04:41.165Z,54.15
2023-04-08T06:05:31.052Z,54.19
2023-04-08T06:06:21.147Z,54.18
2023-04-08T06:07:11.165Z,54.15
2023-04-08T06:08:01.244Z,54.16
2023-04-08T06:08:51.542Z,54.16
2023-04-08T06:09:41.430Z,54.16
2023-04-08T06:10:31.390Z,54.17
2023-04-08T06:11:21.513Z,54.19
2023-04-08T06:12:11.522Z,54.20
2023-04-08T06:13:01.599Z,54.19
2023-04-08T06:13:51.840Z,54.20
2023-04-08T06:14:41.921Z,54.18
2023-04-08T06:15:31.943Z,54.21
2023-04-08T06:16:22.099Z,54.21
2023-04-08T06:17:12.086Z,54.20
2023-04-08T06:18:02.279Z,54.20
2023-04-08T06:18:52.345Z,54.21
2023-04-08T06:19:42.269Z,54.19
2023-04-08T06:20:32.337Z,54.18
2023-04-08T06:21:22.429Z,54.21
2023-04-08T06:22:12.434Z,54.20
2023-04-08T06:23:02.726Z,54.17
2023-04-08T06:23:52.788Z,54.18
2023-04-08T06:24:42.870Z,54.20
2023-04-08T06:25:33.152Z,54.17
2023-04-08T06:26:23.257Z,54.19
2023-04-08T06:27:13.261Z,54.18
2023-04-08T06:28:03.338Z,54.19
2023-04-08T06:28:53.371Z,54.21
2023-04-08T06:29:43.497Z,54.17
2023-04-08T06:30:33.475Z,54.16
2023-04-08T06:31:23.619Z,54.16
2023-04-08T06:32:13.612Z,54.19
2023-04-08T06:33:03.783Z,54.18
2023-04-08T06:33:53.722Z,54.17
2023-04-08T06:34:43.800Z,54.18
2023-04-08T06:35:33.839Z,54.18
2023-04-08T06:36:23.916Z,54.16
2023-04-08T06:37:13.950Z,54.15
2023-04-08T06:38:04.020Z,54.19
2023-04-08T06:38:54.100Z,54.23
2023-04-08T06:39:44.147Z,54.20
2023-04-08T06:40:34.212Z,54.17
2023-04-08T06:41:24.489Z,54.16
2023-04-08T06:42:14.506Z,54.21
2023-04-08T06:43:04.570Z,54.19
2023-04-08T06:43:54.896Z,54.20
2023-04-08T06:44:44.962Z,54.20
2023-04-08T06:45:35.076Z,54.21
2023-04-08T06:46:25.253Z,54.22
2023-04-08T06:47:15.117Z,54.17
2023-04-08T06:48:05.239Z,54.22
2023-04-08T06:48:55.282Z,54.20
2023-04-08T06:49:45.344Z,54.18
2023-04-08T06:50:35.500Z,54.20
2023-04-08T06:51:25.597Z,54.21
2023-04-08T06:52:15.620Z,54.19
2023-04-08T06:53:05.698Z,54.21
2023-04-08T06:53:55.722Z,54.20
2023-04-08T06:54:45.820Z,54.17
2023-04-08T06:55:35.866Z,54.18
2023-04-08T06:56:25.968Z,54.19
2023-04-08T06:57:16.000Z,54.19
2023-04-08T06:58:06.063Z,54.18
2023-04-08T06:58:56.081Z,54.20
2023-04-08T06:59:46.422Z,54.19
2023-04-08T07:00:36.479Z,54.18
2023-04-08T07:01:26.618Z,54.22
2023-04-08T07:02:16.878Z,54.22
2023-04-08T07:03:07.017Z,54.17
2023-04-08T07:03:57.026Z,54.26
2023-04-08T07:04:47.088Z,54.23
2023-04-08T07:05:37.062Z,54.20
2023-04-08T07:06:27.153Z,54.21
2023-04-08T07:07:17.185Z,54.17
2023-04-08T07:08:07.255Z,54.20
2023-04-08T07:08:57.278Z,54.17
2023-04-08T07:09:47.355Z,54.18
2023-04-08T07:10:37.526Z,54.22
2023-04-08T07:11:27.961Z,54.25
2023-04-08T07:12:17.798Z,54.20
2023-04-08T07:13:07.872Z,54.20
2023-04-08T07:13:58.206Z,54.20
2023-04-08T07:14:48.283Z,54.23
2023-04-08T07:15:38.299Z,54.23
2023-04-08T07:16:28.440Z,54.23
2023-04-08T07:17:18.437Z,54.20
2023-04-08T07:18:08.508Z,54.23
2023-04-08T07:18:58.573Z,54.26
2023-04-08T07:19:48.638Z,54.23
2023-04-08T07:20:38.692Z,54.25
2023-04-08T07:21:28.774Z,54.24
2023-04-08T07:22:18.803Z,54.28
2023-04-08T07:23:09.039Z,54.24
2023-04-08T07:23:59.107Z,54.22
2023-04-08T07:24:49.176Z,54.20
2023-04-08T07:25:39.499Z,54.23
2023-04-08T07:26:29.598Z,54.26
2023-04-08T07:27:19.611Z,54.26
2023-04-08T07:28:09.937Z,54.26
2023-04-08T07:28:59.975Z,54.26
2023-04-08T07:29:50.065Z,54.29
2023-04-08T07:30:40.106Z,54.27
2023-04-08T07:31:30.242Z,54.27
2023-04-08T07:32:20.238Z,54.28
2023-04-08T07:33:10.382Z,54.24
2023-04-08T07:34:00.316Z,54.24
2023-04-08T07:34:50.402Z,54.24
2023-04-08T07:35:40.543Z,54.27
2023-04-08T07:36:30.488Z,54.29
2023-04-08T07:37:20.765Z,54.30
2023-04-08T07:38:10.837Z,54.29
2023-04-08T07:39:00.912Z,54.30
2023-04-08T07:39:50.971Z,54.28
2023-04-08T07:40:41.058Z,54.33
2023-04-08T07:41:31.123Z,54.31
2023-04-08T07:42:21.154Z,54.28
2023-04-08T07:43:11.225Z,54.31
2023-04-08T07:44:01.372Z,54.33
2023-04-08T07:44:51.335Z,54.33
2023-04-08T07:45:41.407Z,54.31
2023-04-08T07:46:31.755Z,54.35
2023-04-08T07:47:21.723Z,54.35
2023-04-08T07:48:11.957Z,54.35
2023-04-08T07:49:01.838Z,54.34
2023-04-08T07:49:51.909Z,54.33
2023-04-08T07:51:08.215Z,54.30
2023-04-08T07:51:33.014Z,54.34
2023-04-08T07:52:22.082Z,54.39
2023-04-08T07:53:12.097Z,54.36
2023-04-08T07:54:02.184Z,54.32
2023-04-08T07:54:52.192Z,54.37
2023-04-08T07:55:42.256Z,54.35
2023-04-08T07:56:32.329Z,54.34
2023-04-08T07:57:22.544Z,54.37
2023-04-08T07:58:12.572Z,54.38
2023-04-08T07:59:02.629Z,54.34
2023-04-08T07:59:52.697Z,54.32
2023-04-08T08:00:42.778Z,54.33
2023-04-08T08:01:32.853Z,54.32
2023-04-08T08:02:23.120Z,54.32
2023-04-08T08:03:13.026Z,54.36
2023-04-08T08:04:03.237Z,54.34
2023-04-08T08:04:53.133Z,54.36
2023-04-08T08:05:43.083Z,54.31
2023-04-08T08:06:33.265Z,54.36
2023-04-08T08:07:23.227Z,54.32
2023-04-08T08:08:13.257Z,54.35
2023-04-08T08:09:03.337Z,54.35
2023-04-08T08:09:53.331Z,54.32
2023-04-08T08:10:43.488Z,54.34
2023-04-08T08:11:33.519Z,54.35
2023-04-08T08:12:23.580Z,54.35
2023-04-08T08:13:13.644Z,54.33
2023-04-08T08:14:03.679Z,54.33
2023-04-08T08:14:53.712Z,54.31
2023-04-08T08:15:43.810Z,54.38
2023-04-08T08:16:33.949Z,54.36
2023-04-08T08:17:25.026Z,54.34
2023-04-08T08:18:13.977Z,54.37
2023-04-08T08:19:04.044Z,54.35
2023-04-08T08:19:54.283Z,54.34
2023-04-08T08:20:44.358Z,54.29
2023-04-08T08:21:34.421Z,54.29
2023-04-08T08:22:24.551Z,54.32
2023-04-08T08:23:14.559Z,54.32
2023-04-08T08:24:04.631Z,54.34
2023-04-08T08:24:54.708Z,54.34
2023-04-08T08:25:44.734Z,54.32
2023-04-08T08:26:34.792Z,54.34
2023-04-08T08:27:24.884Z,54.30
2023-04-08T08:28:14.909Z,54.38
2023-04-08T08:29:05.010Z,54.35
2023-04-08T08:29:55.009Z,54.40
2023-04-08T08:30:45.093Z,54.35
2023-04-08T08:31:35.155Z,54.39
2023-04-08T08:32:25.233Z,54.38
2023-04-08T08:33:15.250Z,54.38
2023-04-08T08:34:05.281Z,54.38
2023-04-08T08:34:55.341Z,54.32
2023-04-08T08:35:45.467Z,54.36
2023-04-08T08:36:35.533Z,54.32
2023-04-08T08:37:25.558Z,54.35
2023-04-08T08:38:15.601Z,54.39
2023-04-08T08:39:05.671Z,54.34
2023-04-08T08:39:55.718Z,54.37
2023-04-08T08:40:45.808Z,54.37
2023-04-08T08:41:35.839Z,54.39
2023-04-08T08:42:26.127Z,54.40
2023-04-08T08:43:16.160Z,54.37
2023-04-08T08:44:06.236Z,54.41
2023-04-08T08:44:56.295Z,54.36
2023-04-08T08:45:46.376Z,54.35
2023-04-08T08:46:36.422Z,54.38
2023-04-08T08:47:26.534Z,54.37
2023-04-08T08:48:16.519Z,54.35
2023-04-08T08:49:06.602Z,54.37
2023-04-08T08:49:56.629Z,54.36
2023-04-08T08:50:46.703Z,54.42
2023-04-08T08:51:36.985Z,54.39
2023-04-08T08:52:27.100Z,54.38
2023-04-08T08:53:17.127Z,54.79
2023-04-08T08:54:07.236Z,54.71
2023-04-08T08:54:57.224Z,54.67
2023-04-08T08:56:37.366Z,54.58
2023-04-08T08:57:27.513Z,54.60
2023-04-08T08:58:17.497Z,54.60
2023-04-08T08:59:07.587Z,54.58
2023-04-08T08:59:57.627Z,54.56
2023-04-08T09:00:47.714Z,54.52
2023-04-08T09:01:38.215Z,54.51
2023-04-08T09:02:28.162Z,54.49
2023-04-08T09:03:18.269Z,54.52
2023-04-08T09:04:08.348Z,54.52
2023-04-08T09:04:58.214Z,54.49
2023-04-08T09:05:48.205Z,54.46
2023-04-08T09:06:38.195Z,54.50
2023-04-08T09:07:28.247Z,54.46
2023-04-08T09:08:18.313Z,54.47
2023-04-08T09:09:08.522Z,54.48
2023-04-08T09:09:58.570Z,54.47
2023-04-08T09:10:48.624Z,54.45
2023-04-08T09:11:38.691Z,54.46
2023-04-08T09:12:28.754Z,54.44
2023-04-08T09:13:18.837Z,54.47
2023-04-08T09:14:08.874Z,54.42
2023-04-08T09:14:58.896Z,54.45
2023-04-08T09:15:48.986Z,54.45
2023-04-08T09:16:39.100Z,54.44
2023-04-08T09:17:29.054Z,54.44
2023-04-08T09:18:19.353Z,54.44
2023-04-08T09:19:09.400Z,54.45
2023-04-08T09:19:59.401Z,54.44
2023-04-08T09:20:49.482Z,54.45
2023-04-08T09:21:39.519Z,54.46
2023-04-08T09:22:29.588Z,54.46
2023-04-08T09:23:19.690Z,54.46
2023-04-08T09:24:09.708Z,54.50
2023-04-08T09:24:59.745Z,54.45
2023-04-08T09:25:49.799Z,54.47
2023-04-08T09:26:39.848Z,54.44
2023-04-08T09:27:30.187Z,54.45
2023-04-08T09:28:20.228Z,54.48
2023-04-08T09:29:25.209Z,54.48
2023-04-08T09:30:01.317Z,54.55
2023-04-08T09:30:50.371Z,54.50
2023-04-08T09:31:40.425Z,54.50
2023-04-08T09:32:30.454Z,54.50
2023-04-08T09:33:20.494Z,54.48
2023-04-08T09:34:10.547Z,54.49
2023-04-08T09:35:00.559Z,54.47
2023-04-08T09:35:50.921Z,54.48
2023-04-08T09:36:40.917Z,54.44
2023-04-08T09:37:30.996Z,54.42
2023-04-08T09:38:21.036Z,54.43
2023-04-08T09:39:11.075Z,54.46
2023-04-08T09:40:01.106Z,54.46
2023-04-08T09:40:51.190Z,54.50
2023-04-08T09:41:41.240Z,54.52
2023-04-08T09:42:31.311Z,54.48
2023-04-08T09:43:21.381Z,54.47
2023-04-08T09:44:11.415Z,54.48
2023-04-08T09:45:01.758Z,54.45
2023-04-08T09:45:51.895Z,54.48
2023-04-08T09:46:41.849Z,54.50
2023-04-08T09:47:31.935Z,54.50
2023-04-08T09:48:21.968Z,54.45
2023-04-08T09:49:12.020Z,54.47
2023-04-08T09:50:02.104Z,54.45
2023-04-08T09:50:52.125Z,54.46
2023-04-08T09:51:42.201Z,54.46
2023-04-08T09:52:32.274Z,54.46
2023-04-08T09:53:23.386Z,54.44
2023-04-08T09:54:12.565Z,54.46
2023-04-08T09:55:02.598Z,54.46
2023-04-08T09:55:52.677Z,54.44
2023-04-08T09:56:42.727Z,54.44
2023-04-08T09:57:32.775Z,54.46
2023-04-08T09:58:22.828Z,54.48
2023-04-08T09:59:12.872Z,54.49
2023-04-08T10:00:02.889Z,54.46
2023-04-08T10:00:53.010Z,54.50
2023-04-08T10:01:43.148Z,54.47
2023-04-08T10:02:33.156Z,54.49
2023-04-08T10:03:23.318Z,54.51
2023-04-08T10:04:13.309Z,54.52
2023-04-08T10:05:04.114Z,54.49
2023-04-08T10:05:53.279Z,54.51
2023-04-08T10:06:43.305Z,54.53
2023-04-08T10:07:33.707Z,54.52
2023-04-08T10:08:23.713Z,54.50
2023-04-08T10:09:13.739Z,54.50
2023-04-08T10:10:04.060Z,54.48
2023-04-08T10:10:54.140Z,54.49
2023-04-08T10:11:44.166Z,54.51
2023-04-08T10:12:34.340Z,54.50
2023-04-08T10:13:24.293Z,54.52
2023-04-08T10:14:14.338Z,54.49
2023-04-08T10:15:04.366Z,54.53
2023-04-08T10:15:54.431Z,54.55
2023-04-08T10:16:44.579Z,54.55
2023-04-08T10:17:34.670Z,54.50
2023-04-08T10:18:24.693Z,54.52
2023-04-08T10:19:14.716Z,54.53
2023-04-08T10:20:04.783Z,54.50
2023-04-08T10:20:54.863Z,54.48
2023-04-08T10:21:44.945Z,54.47
2023-04-08T10:22:34.977Z,54.48
2023-04-08T10:23:25.082Z,54.48
2023-04-08T10:24:15.123Z,54.51
2023-04-08T10:25:05.168Z,54.48
2023-04-08T10:25:55.413Z,54.50
2023-04-08T10:26:45.470Z,54.52
2023-04-08T10:27:35.552Z,54.50
2023-04-08T10:28:25.624Z,54.51
2023-04-08T10:29:15.623Z,54.50
2023-04-08T10:30:05.672Z,54.54
2023-04-08T10:30:55.749Z,54.51
2023-04-08T10:31:45.838Z,54.52
2023-04-08T10:32:35.919Z,54.52
2023-04-08T10:33:25.965Z,54.49
2023-04-08T10:34:16.018Z,54.49
2023-04-08T10:35:06.239Z,54.51
2023-04-08T10:35:56.331Z,54.50
2023-04-08T10:36:46.380Z,54.52
2023-04-08T10:37:36.713Z,54.53
2023-04-08T10:38:26.788Z,54.52
2023-04-08T10:39:16.866Z,54.52
2023-04-08T10:40:07.141Z,54.55
2023-04-08T10:40:57.223Z,54.54
2023-04-08T10:41:47.253Z,54.56
2023-04-08T10:42:37.318Z,54.55
2023-04-08T10:43:27.437Z,54.53
2023-04-08T10:44:17.416Z,54.50
2023-04-08T10:45:07.475Z,54.51
2023-04-08T10:45:57.578Z,54.49